sensor_id;sensor_type;location;lat;lon;timestamp;pressure;altitude;pressure_sealevel;temperature;humidity
21102;BME280;10709;49.006;12.100;2024-03-08T00:00:59;48681.41;;;-146.00;72.87
21102;BME280;10709;49.006;12.100;2024-03-08T00:03:26;48683.34;;;-146.00;72.86
21102;BME280;10709;49.006;12.100;2024-03-08T00:05:53;48669.63;;;-146.00;72.63
21102;BME280;10709;49.006;12.100;2024-03-08T00:08:19;48667.69;;;-146.00;72.96
21102;BME280;10709;49.006;12.100;2024-03-08T00:10:46;48667.69;;;-146.00;73.47
21102;BME280;10709;49.006;12.100;2024-03-08T00:13:17;48663.75;;;-146.00;72.95
21102;BME280;10709;49.006;12.100;2024-03-08T00:15:43;48675.50;;;-146.00;73.43
21102;BME280;10709;49.006;12.100;2024-03-08T00:18:10;48667.69;;;-146.00;73.07
21102;BME280;10709;49.006;12.100;2024-03-08T00:20:38;48671.59;;;-146.00;72.95
21102;BME280;10709;49.006;12.100;2024-03-08T00:23:05;48655.94;;;-146.00;72.85
21102;BME280;10709;49.006;12.100;2024-03-08T00:25:31;48652.00;;;-146.00;72.85
21102;BME280;10709;49.006;12.100;2024-03-08T00:27:57;48653.97;;;-146.00;72.81
21102;BME280;10709;49.006;12.100;2024-03-08T00:30:26;48661.81;;;-146.00;73.01
21102;BME280;10709;49.006;12.100;2024-03-08T00:32:52;48653.97;;;-146.00;73.49
21102;BME280;10709;49.006;12.100;2024-03-08T00:35:19;48659.84;;;-146.00;73.62
21102;BME280;10709;49.006;12.100;2024-03-08T00:37:45;48659.84;;;-146.00;73.64
21102;BME280;10709;49.006;12.100;2024-03-08T00:40:16;48683.34;;;-146.00;73.58
21102;BME280;10709;49.006;12.100;2024-03-08T00:42:43;48677.47;;;-146.00;73.99
21102;BME280;10709;49.006;12.100;2024-03-08T00:45:11;48665.72;;;-146.00;74.16
21102;BME280;10709;49.006;12.100;2024-03-08T00:47:38;48661.81;;;-146.00;74.09
21102;BME280;10709;49.006;12.100;2024-03-08T00:50:05;48681.41;;;-146.00;73.94
21102;BME280;10709;49.006;12.100;2024-03-08T00:52:32;48667.69;;;-146.00;74.25
21102;BME280;10709;49.006;12.100;2024-03-08T00:55:01;48665.72;;;-146.00;73.90
21102;BME280;10709;49.006;12.100;2024-03-08T00:57:28;48663.75;;;-146.00;74.34
21102;BME280;10709;49.006;12.100;2024-03-08T00:59:56;48652.00;;;-146.00;74.69
21102;BME280;10709;49.006;12.100;2024-03-08T01:02:23;48653.97;;;-146.00;74.83
21102;BME280;10709;49.006;12.100;2024-03-08T01:04:59;48640.25;;;-146.00;74.75
21102;BME280;10709;49.006;12.100;2024-03-08T01:07:25;48661.81;;;-146.00;74.90
21102;BME280;10709;49.006;12.100;2024-03-08T01:09:52;48659.84;;;-146.00;74.42
21102;BME280;10709;49.006;12.100;2024-03-08T01:12:18;48650.06;;;-146.00;74.93
21102;BME280;10709;49.006;12.100;2024-03-08T01:14:45;48663.75;;;-146.00;74.97
21102;BME280;10709;49.006;12.100;2024-03-08T01:17:12;48659.84;;;-146.00;75.29
21102;BME280;10709;49.006;12.100;2024-03-08T01:19:39;48652.00;;;-146.00;75.17
21102;BME280;10709;49.006;12.100;2024-03-08T01:22:05;48671.59;;;-146.00;74.95
21102;BME280;10709;49.006;12.100;2024-03-08T01:24:32;48667.69;;;-146.00;75.57
21102;BME280;10709;49.006;12.100;2024-03-08T01:26:58;48683.34;;;-146.00;75.33
21102;BME280;10709;49.006;12.100;2024-03-08T01:29:26;48683.34;;;-146.00;75.31
21102;BME280;10709;49.006;12.100;2024-03-08T01:31:52;48659.84;;;-146.00;75.12
21102;BME280;10709;49.006;12.100;2024-03-08T01:34:19;48667.69;;;-146.00;75.15
21102;BME280;10709;49.006;12.100;2024-03-08T01:36:46;48655.94;;;-146.00;75.26
21102;BME280;10709;49.006;12.100;2024-03-08T01:39:13;48638.28;;;-146.00;75.12
21102;BME280;10709;49.006;12.100;2024-03-08T01:41:40;48669.63;;;-146.00;75.08
21102;BME280;10709;49.006;12.100;2024-03-08T01:44:06;48667.69;;;-146.00;75.46
21102;BME280;10709;49.006;12.100;2024-03-08T01:46:36;48661.81;;;-146.00;75.43
21102;BME280;10709;49.006;12.100;2024-03-08T01:49:03;48671.59;;;-146.00;75.82
21102;BME280;10709;49.006;12.100;2024-03-08T01:51:30;48663.75;;;-146.00;75.50
21102;BME280;10709;49.006;12.100;2024-03-08T01:53:57;48657.88;;;-146.00;75.36
21102;BME280;10709;49.006;12.100;2024-03-08T01:56:24;48652.00;;;-146.00;75.54
21102;BME280;10709;49.006;12.100;2024-03-08T01:58:55;48663.75;;;-146.00;75.45
21102;BME280;10709;49.006;12.100;2024-03-08T02:01:21;48652.00;;;-146.00;75.74
21102;BME280;10709;49.006;12.100;2024-03-08T02:03:49;48671.59;;;-146.00;76.14
21102;BME280;10709;49.006;12.100;2024-03-08T02:06:15;48675.50;;;-146.00;75.74
21102;BME280;10709;49.006;12.100;2024-03-08T02:08:43;48671.59;;;-146.00;76.14
21102;BME280;10709;49.006;12.100;2024-03-08T02:11:12;48650.06;;;-146.00;76.05
21102;BME280;10709;49.006;12.100;2024-03-08T02:13:39;48663.75;;;-146.00;76.19
21102;BME280;10709;49.006;12.100;2024-03-08T02:16:06;48679.44;;;-146.00;76.04
21102;BME280;10709;49.006;12.100;2024-03-08T02:18:34;48657.88;;;-146.00;76.59
21102;BME280;10709;49.006;12.100;2024-03-08T02:21:03;48659.84;;;-146.00;76.18
21102;BME280;10709;49.006;12.100;2024-03-08T02:23:32;48673.56;;;-146.00;76.48
21102;BME280;10709;49.006;12.100;2024-03-08T02:25:59;48655.94;;;-146.00;76.17
21102;BME280;10709;49.006;12.100;2024-03-08T02:28:26;48659.84;;;-146.00;76.52
21102;BME280;10709;49.006;12.100;2024-03-08T02:30:52;48675.50;;;-146.00;77.09
21102;BME280;10709;49.006;12.100;2024-03-08T02:33:27;48661.81;;;-146.00;77.04
21102;BME280;10709;49.006;12.100;2024-03-08T02:35:54;48667.69;;;-146.00;76.98
21102;BME280;10709;49.006;12.100;2024-03-08T02:38:24;48657.88;;;-146.00;76.85
21102;BME280;10709;49.006;12.100;2024-03-08T02:40:52;48671.59;;;-146.00;77.00
21102;BME280;10709;49.006;12.100;2024-03-08T02:43:20;48675.50;;;-146.00;77.12
21102;BME280;10709;49.006;12.100;2024-03-08T02:45:53;48655.94;;;-146.00;76.81
21102;BME280;10709;49.006;12.100;2024-03-08T02:48:20;48663.75;;;-146.00;76.77
21102;BME280;10709;49.006;12.100;2024-03-08T02:50:48;48671.59;;;-146.00;76.55
21102;BME280;10709;49.006;12.100;2024-03-08T02:53:18;48648.09;;;-146.00;76.85
21102;BME280;10709;49.006;12.100;2024-03-08T02:55:45;48652.00;;;-146.00;76.79
21102;BME280;10709;49.006;12.100;2024-03-08T02:58:13;48657.88;;;-146.00;76.55
21102;BME280;10709;49.006;12.100;2024-03-08T03:00:41;48671.59;;;-146.00;77.07
21102;BME280;10709;49.006;12.100;2024-03-08T03:03:13;48652.00;;;-146.00;77.05
21102;BME280;10709;49.006;12.100;2024-03-08T03:05:39;48659.84;;;-146.00;77.44
21102;BME280;10709;49.006;12.100;2024-03-08T03:08:13;48667.69;;;-146.00;77.39
21102;BME280;10709;49.006;12.100;2024-03-08T03:10:41;48652.00;;;-146.00;77.73
21102;BME280;10709;49.006;12.100;2024-03-08T03:13:08;48669.63;;;-146.00;77.79
21102;BME280;10709;49.006;12.100;2024-03-08T03:15:35;48679.44;;;-146.00;77.89
21102;BME280;10709;49.006;12.100;2024-03-08T03:18:03;48655.94;;;-146.00;77.65
21102;BME280;10709;49.006;12.100;2024-03-08T03:20:30;48652.00;;;-146.00;77.40
21102;BME280;10709;49.006;12.100;2024-03-08T03:23:00;48653.97;;;-146.00;77.50
21102;BME280;10709;49.006;12.100;2024-03-08T03:25:30;48667.69;;;-146.00;77.38
21102;BME280;10709;49.006;12.100;2024-03-08T03:28:04;48679.44;;;-146.00;77.91
21102;BME280;10709;49.006;12.100;2024-03-08T03:30:31;48663.75;;;-146.00;77.71
21102;BME280;10709;49.006;12.100;2024-03-08T03:33:00;48655.94;;;-146.00;78.16
21102;BME280;10709;49.006;12.100;2024-03-08T03:35:28;48659.84;;;-146.00;78.28
21102;BME280;10709;49.006;12.100;2024-03-08T03:37:58;48663.75;;;-146.00;78.46
21102;BME280;10709;49.006;12.100;2024-03-08T03:40:29;48644.16;;;-146.00;78.20
21102;BME280;10709;49.006;12.100;2024-03-08T03:42:55;48644.16;;;-146.00;78.03
21102;BME280;10709;49.006;12.100;2024-03-08T03:45:23;48679.44;;;-146.00;78.14
21102;BME280;10709;49.006;12.100;2024-03-08T03:47:51;48671.59;;;-146.00;78.25
21102;BME280;10709;49.006;12.100;2024-03-08T03:50:21;48667.69;;;-146.00;78.27
21102;BME280;10709;49.006;12.100;2024-03-08T03:52:48;48671.59;;;-146.00;78.29
21102;BME280;10709;49.006;12.100;2024-03-08T03:55:15;48640.25;;;-146.00;78.10
21102;BME280;10709;49.006;12.100;2024-03-08T03:57:41;48661.81;;;-146.00;78.03
21102;BME280;10709;49.006;12.100;2024-03-08T04:00:09;48671.59;;;-146.00;77.95
21102;BME280;10709;49.006;12.100;2024-03-08T04:02:37;48655.94;;;-146.00;78.13
21102;BME280;10709;49.006;12.100;2024-03-08T04:05:09;48659.84;;;-146.00;78.10
21102;BME280;10709;49.006;12.100;2024-03-08T04:07:36;48663.75;;;-146.00;77.99
21102;BME280;10709;49.006;12.100;2024-03-08T04:10:04;48640.25;;;-146.00;78.63
21102;BME280;10709;49.006;12.100;2024-03-08T04:12:35;48655.94;;;-146.00;78.29
21102;BME280;10709;49.006;12.100;2024-03-08T04:15:02;48667.69;;;-146.00;78.42
21102;BME280;10709;49.006;12.100;2024-03-08T04:17:30;48663.75;;;-146.00;78.40
21102;BME280;10709;49.006;12.100;2024-03-08T04:19:56;48655.94;;;-146.00;78.56
21102;BME280;10709;49.006;12.100;2024-03-08T04:22:23;48663.75;;;-146.00;78.38
21102;BME280;10709;49.006;12.100;2024-03-08T04:24:50;48655.94;;;-146.00;78.50
21102;BME280;10709;49.006;12.100;2024-03-08T04:27:17;48659.84;;;-146.00;78.76
21102;BME280;10709;49.006;12.100;2024-03-08T04:29:43;48675.50;;;-146.00;79.08
21102;BME280;10709;49.006;12.100;2024-03-08T04:32:10;48681.41;;;-146.00;79.25
21102;BME280;10709;49.006;12.100;2024-03-08T04:34:36;48675.50;;;-146.00;79.11
21102;BME280;10709;49.006;12.100;2024-03-08T04:37:03;48644.16;;;-146.00;79.20
21102;BME280;10709;49.006;12.100;2024-03-08T04:39:31;48655.94;;;-146.00;78.93
21102;BME280;10709;49.006;12.100;2024-03-08T04:42:00;48650.06;;;-146.00;79.18
21102;BME280;10709;49.006;12.100;2024-03-08T04:44:32;48663.75;;;-146.00;79.40
21102;BME280;10709;49.006;12.100;2024-03-08T04:47:00;48667.69;;;-146.00;79.24
21102;BME280;10709;49.006;12.100;2024-03-08T04:49:27;48661.81;;;-146.00;79.10
21102;BME280;10709;49.006;12.100;2024-03-08T04:51:54;48652.00;;;-146.00;78.86
21102;BME280;10709;49.006;12.100;2024-03-08T04:54:21;48665.72;;;-146.00;79.45
21102;BME280;10709;49.006;12.100;2024-03-08T04:56:47;48673.56;;;-146.00;79.38
21102;BME280;10709;49.006;12.100;2024-03-08T04:59:14;48671.59;;;-146.00;79.16
21102;BME280;10709;49.006;12.100;2024-03-08T05:01:41;48667.69;;;-146.00;79.11
21102;BME280;10709;49.006;12.100;2024-03-08T05:04:07;48671.59;;;-146.00;79.40
21102;BME280;10709;49.006;12.100;2024-03-08T05:06:35;48648.09;;;-146.00;79.28
21102;BME280;10709;49.006;12.100;2024-03-08T05:09:03;48657.88;;;-146.00;79.08
21102;BME280;10709;49.006;12.100;2024-03-08T05:11:44;48683.34;;;-146.00;78.97
21102;BME280;10709;49.006;12.100;2024-03-08T05:14:11;48675.50;;;-146.00;79.62
21102;BME280;10709;49.006;12.100;2024-03-08T05:16:44;48655.94;;;-146.00;79.35
21102;BME280;10709;49.006;12.100;2024-03-08T05:19:16;48671.59;;;-146.00;79.36
21102;BME280;10709;49.006;12.100;2024-03-08T05:21:47;48655.94;;;-146.00;79.72
21102;BME280;10709;49.006;12.100;2024-03-08T05:24:15;48691.19;;;-146.00;79.41
21102;BME280;10709;49.006;12.100;2024-03-08T05:26:45;48663.75;;;-146.00;79.44
21102;BME280;10709;49.006;12.100;2024-03-08T05:29:13;48663.75;;;-146.00;79.67
21102;BME280;10709;49.006;12.100;2024-03-08T05:31:47;48655.94;;;-146.00;79.60
21102;BME280;10709;49.006;12.100;2024-03-08T05:34:15;48671.59;;;-146.00;79.49
21102;BME280;10709;49.006;12.100;2024-03-08T05:36:43;48663.75;;;-146.00;79.62
21102;BME280;10709;49.006;12.100;2024-03-08T05:39:13;48653.97;;;-146.00;79.80
21102;BME280;10709;49.006;12.100;2024-03-08T05:41:40;48683.34;;;-146.00;79.53
21102;BME280;10709;49.006;12.100;2024-03-08T05:44:07;48663.75;;;-146.00;79.60
21102;BME280;10709;49.006;12.100;2024-03-08T05:46:35;48659.84;;;-146.00;79.47
21102;BME280;10709;49.006;12.100;2024-03-08T05:49:04;48675.50;;;-146.00;79.31
21102;BME280;10709;49.006;12.100;2024-03-08T05:51:33;48687.28;;;-146.00;79.52
21102;BME280;10709;49.006;12.100;2024-03-08T05:54:07;48687.28;;;-146.00;79.57
21102;BME280;10709;49.006;12.100;2024-03-08T05:56:37;48671.59;;;-146.00;79.41
21102;BME280;10709;49.006;12.100;2024-03-08T05:59:04;48638.28;;;-146.00;79.32
21102;BME280;10709;49.006;12.100;2024-03-08T06:01:30;48683.34;;;-146.00;79.81
21102;BME280;10709;49.006;12.100;2024-03-08T06:04:03;48671.59;;;-146.00;79.82
21102;BME280;10709;49.006;12.100;2024-03-08T06:06:30;48644.16;;;-146.00;79.84
21102;BME280;10709;49.006;12.100;2024-03-08T06:08:56;48652.00;;;-146.00;79.79
21102;BME280;10709;49.006;12.100;2024-03-08T06:11:23;48679.44;;;-146.00;79.79
21102;BME280;10709;49.006;12.100;2024-03-08T06:13:49;48663.75;;;-146.00;80.12
21102;BME280;10709;49.006;12.100;2024-03-08T06:16:16;48667.69;;;-146.00;79.83
21102;BME280;10709;49.006;12.100;2024-03-08T06:18:43;48679.44;;;-146.00;80.02
21102;BME280;10709;49.006;12.100;2024-03-08T06:21:10;48667.69;;;-146.00;79.99
21102;BME280;10709;49.006;12.100;2024-03-08T06:23:39;48663.75;;;-146.00;79.86
21102;BME280;10709;49.006;12.100;2024-03-08T06:26:06;48655.94;;;-146.00;80.36
21102;BME280;10709;49.006;12.100;2024-03-08T06:28:33;48648.09;;;-146.00;80.11
21102;BME280;10709;49.006;12.100;2024-03-08T06:31:01;48648.09;;;-146.00;80.59
21102;BME280;10709;49.006;12.100;2024-03-08T06:33:29;48659.84;;;-146.00;80.56
21102;BME280;10709;49.006;12.100;2024-03-08T06:35:59;48685.31;;;-146.00;81.11
21102;BME280;10709;49.006;12.100;2024-03-08T06:38:26;48671.59;;;-146.00;81.52
21102;BME280;10709;49.006;12.100;2024-03-08T06:40:55;48655.94;;;-146.00;81.14
21102;BME280;10709;49.006;12.100;2024-03-08T06:43:21;48675.50;;;-146.00;81.16
21102;BME280;10709;49.006;12.100;2024-03-08T06:45:48;48644.16;;;-146.00;81.21
21102;BME280;10709;49.006;12.100;2024-03-08T06:48:16;48671.59;;;-146.00;81.75
21102;BME280;10709;49.006;12.100;2024-03-08T06:50:44;48679.44;;;-146.00;81.96
21102;BME280;10709;49.006;12.100;2024-03-08T06:53:12;48683.34;;;-146.00;81.84
21102;BME280;10709;49.006;12.100;2024-03-08T06:55:38;48659.84;;;-146.00;81.94
21102;BME280;10709;49.006;12.100;2024-03-08T06:58:05;48687.28;;;-146.00;83.05
21102;BME280;10709;49.006;12.100;2024-03-08T07:00:33;48648.09;;;-146.00;83.13
21102;BME280;10709;49.006;12.100;2024-03-08T07:02:59;48659.84;;;-146.00;82.86
21102;BME280;10709;49.006;12.100;2024-03-08T07:05:29;48679.44;;;-146.00;84.20
21102;BME280;10709;49.006;12.100;2024-03-08T07:07:57;48681.41;;;-146.00;84.15
21102;BME280;10709;49.006;12.100;2024-03-08T07:10:25;48691.19;;;-146.00;83.75
21102;BME280;10709;49.006;12.100;2024-03-08T07:12:52;48699.03;;;-146.00;84.49
21102;BME280;10709;49.006;12.100;2024-03-08T07:15:19;48693.16;;;-146.00;84.77
21102;BME280;10709;49.006;12.100;2024-03-08T07:17:47;48681.41;;;-146.00;84.61
21102;BME280;10709;49.006;12.100;2024-03-08T07:20:14;48679.44;;;-146.00;84.62
21102;BME280;10709;49.006;12.100;2024-03-08T07:22:42;48681.41;;;-146.00;84.64
21102;BME280;10709;49.006;12.100;2024-03-08T07:25:13;48681.41;;;-146.00;84.14
21102;BME280;10709;49.006;12.100;2024-03-08T07:30:16;48699.03;;;-146.00;83.94
21102;BME280;10709;49.006;12.100;2024-03-08T07:33:01;48663.75;;;-146.00;84.12
21102;BME280;10709;49.006;12.100;2024-03-08T07:35:29;48663.75;;;-146.00;84.54
21102;BME280;10709;49.006;12.100;2024-03-08T07:37:56;48655.94;;;-146.00;84.42
21102;BME280;10709;49.006;12.100;2024-03-08T07:40:23;48675.50;;;-146.00;83.56
21102;BME280;10709;49.006;12.100;2024-03-08T07:42:49;48689.22;;;-146.00;83.19
21102;BME280;10709;49.006;12.100;2024-03-08T07:45:16;48689.22;;;-146.00;83.10
21102;BME280;10709;49.006;12.100;2024-03-08T07:47:44;48699.03;;;-146.00;83.14
21102;BME280;10709;49.006;12.100;2024-03-08T07:50:12;48687.28;;;-146.00;82.83
21102;BME280;10709;49.006;12.100;2024-03-08T07:52:42;48679.44;;;-146.00;82.34
21102;BME280;10709;49.006;12.100;2024-03-08T07:55:12;48679.44;;;-146.00;82.54
21102;BME280;10709;49.006;12.100;2024-03-08T07:57:39;48689.22;;;-146.00;82.75
21102;BME280;10709;49.006;12.100;2024-03-08T08:00:06;48710.78;;;-146.00;82.88
21102;BME280;10709;49.006;12.100;2024-03-08T08:02:35;48685.31;;;-146.00;81.80
21102;BME280;10709;49.006;12.100;2024-03-08T08:05:06;48659.84;;;-146.00;81.41
21102;BME280;10709;49.006;12.100;2024-03-08T08:07:32;48695.09;;;-146.00;82.13
21102;BME280;10709;49.006;12.100;2024-03-08T08:09:59;48683.34;;;-146.00;81.95
21102;BME280;10709;49.006;12.100;2024-03-08T08:12:26;48683.34;;;-146.00;81.15
21102;BME280;10709;49.006;12.100;2024-03-08T08:14:54;48700.97;;;-146.00;81.17
21102;BME280;10709;49.006;12.100;2024-03-08T08:17:23;48683.34;;;-146.00;81.51
21102;BME280;10709;49.006;12.100;2024-03-08T08:19:50;48683.34;;;-146.00;80.82
21102;BME280;10709;49.006;12.100;2024-03-08T08:22:18;48695.09;;;-146.00;81.05
21102;BME280;10709;49.006;12.100;2024-03-08T08:24:45;48671.59;;;-146.00;80.56
21102;BME280;10709;49.006;12.100;2024-03-08T08:27:12;48663.75;;;-146.00;79.45
21102;BME280;10709;49.006;12.100;2024-03-08T08:29:38;48691.19;;;-146.00;79.80
21102;BME280;10709;49.006;12.100;2024-03-08T08:32:06;48687.28;;;-146.00;79.69
21102;BME280;10709;49.006;12.100;2024-03-08T08:34:32;48687.28;;;-146.00;78.98
21102;BME280;10709;49.006;12.100;2024-03-08T08:36:59;48679.44;;;-146.00;77.50
21102;BME280;10709;49.006;12.100;2024-03-08T08:39:26;48683.34;;;-146.00;77.45
21102;BME280;10709;49.006;12.100;2024-03-08T08:41:56;48702.94;;;-146.00;77.71
21102;BME280;10709;49.006;12.100;2024-03-08T08:44:22;48691.19;;;-146.00;77.41
21102;BME280;10709;49.006;12.100;2024-03-08T08:46:50;48699.03;;;-146.00;78.00
21102;BME280;10709;49.006;12.100;2024-03-08T08:49:22;48657.88;;;-146.00;77.10
21102;BME280;10709;49.006;12.100;2024-03-08T08:51:50;48671.59;;;-146.00;76.26
21102;BME280;10709;49.006;12.100;2024-03-08T08:54:18;48683.34;;;-146.00;76.24
21102;BME280;10709;49.006;12.100;2024-03-08T08:56:45;48687.28;;;-146.00;76.34
21102;BME280;10709;49.006;12.100;2024-03-08T08:59:11;48691.19;;;-146.00;76.40
21102;BME280;10709;49.006;12.100;2024-03-08T09:01:41;48687.28;;;-146.00;75.89
21102;BME280;10709;49.006;12.100;2024-03-08T09:04:07;48671.59;;;-146.00;76.38
21102;BME280;10709;49.006;12.100;2024-03-08T09:06:34;48683.34;;;-146.00;76.48
21102;BME280;10709;49.006;12.100;2024-03-08T09:09:02;48663.75;;;-146.00;76.64
21102;BME280;10709;49.006;12.100;2024-03-08T09:11:32;48691.19;;;-146.00;75.61
21102;BME280;10709;49.006;12.100;2024-03-08T09:13:59;48671.59;;;-146.00;75.74
21102;BME280;10709;49.006;12.100;2024-03-08T09:16:26;48683.34;;;-146.00;75.65
21102;BME280;10709;49.006;12.100;2024-03-08T09:18:52;48671.59;;;-146.00;76.30
21102;BME280;10709;49.006;12.100;2024-03-08T09:21:19;48675.50;;;-146.00;76.40
21102;BME280;10709;49.006;12.100;2024-03-08T09:23:48;48671.59;;;-146.00;75.06
21102;BME280;10709;49.006;12.100;2024-03-08T09:26:15;48693.16;;;-146.00;74.78
21102;BME280;10709;49.006;12.100;2024-03-08T09:28:54;48691.19;;;-146.00;74.08
21102;BME280;10709;49.006;12.100;2024-03-08T09:31:23;48706.84;;;-146.00;73.35
21102;BME280;10709;49.006;12.100;2024-03-08T09:33:51;48683.34;;;-146.00;73.69
21102;BME280;10709;49.006;12.100;2024-03-08T09:36:20;48691.19;;;-146.00;72.87
21102;BME280;10709;49.006;12.100;2024-03-08T09:38:46;48679.44;;;-146.00;73.24
21102;BME280;10709;49.006;12.100;2024-03-08T09:41:15;48695.09;;;-146.00;73.43
21102;BME280;10709;49.006;12.100;2024-03-08T09:43:42;48683.34;;;-146.00;73.57
21102;BME280;10709;49.006;12.100;2024-03-08T09:46:09;48702.94;;;-146.00;72.13
21102;BME280;10709;49.006;12.100;2024-03-08T09:48:38;48687.28;;;-146.00;72.70
21102;BME280;10709;49.006;12.100;2024-03-08T09:51:08;48679.44;;;-146.00;72.38
21102;BME280;10709;49.006;12.100;2024-03-08T09:53:35;48671.59;;;-146.00;72.83
21102;BME280;10709;49.006;12.100;2024-03-08T09:56:04;48693.16;;;-146.00;72.30
21102;BME280;10709;49.006;12.100;2024-03-08T09:58:31;48683.34;;;-146.00;71.58
21102;BME280;10709;49.006;12.100;2024-03-08T10:01:00;48679.44;;;-146.00;71.19
21102;BME280;10709;49.006;12.100;2024-03-08T10:03:31;48677.47;;;-146.00;70.68
21102;BME280;10709;49.006;12.100;2024-03-08T10:05:59;48683.34;;;-146.00;70.78
21102;BME280;10709;49.006;12.100;2024-03-08T10:08:27;48708.81;;;-146.00;70.88
21102;BME280;10709;49.006;12.100;2024-03-08T10:10:57;48689.22;;;-146.00;70.79
21102;BME280;10709;49.006;12.100;2024-03-08T10:13:27;48683.34;;;-146.00;70.46
21102;BME280;10709;49.006;12.100;2024-03-08T10:15:55;48679.44;;;-146.00;70.57
21102;BME280;10709;49.006;12.100;2024-03-08T10:18:22;48695.09;;;-146.00;70.73
21102;BME280;10709;49.006;12.100;2024-03-08T10:21:02;48695.09;;;-146.00;70.50
21102;BME280;10709;49.006;12.100;2024-03-08T10:23:31;48691.19;;;-146.00;70.30
21102;BME280;10709;49.006;12.100;2024-03-08T10:26:09;48691.19;;;-146.00;70.63
21102;BME280;10709;49.006;12.100;2024-03-08T10:28:37;48687.28;;;-146.00;70.04
21102;BME280;10709;49.006;12.100;2024-03-08T10:31:04;48702.94;;;-146.00;70.84
21102;BME280;10709;49.006;12.100;2024-03-08T10:33:32;48685.31;;;-146.00;70.85
21102;BME280;10709;49.006;12.100;2024-03-08T10:36:00;48687.28;;;-146.00;70.34
21102;BME280;10709;49.006;12.100;2024-03-08T10:38:31;48691.19;;;-146.00;70.72
21102;BME280;10709;49.006;12.100;2024-03-08T10:41:00;48699.03;;;-146.00;70.43
21102;BME280;10709;49.006;12.100;2024-03-08T10:43:31;48675.50;;;-146.00;70.64
21102;BME280;10709;49.006;12.100;2024-03-08T10:46:20;48695.09;;;-146.00;70.03
21102;BME280;10709;49.006;12.100;2024-03-08T10:48:55;48687.28;;;-146.00;70.19
21102;BME280;10709;49.006;12.100;2024-03-08T10:51:25;48683.34;;;-146.00;70.29
21102;BME280;10709;49.006;12.100;2024-03-08T10:53:52;48699.03;;;-146.00;70.56
21102;BME280;10709;49.006;12.100;2024-03-08T10:56:21;48691.19;;;-146.00;70.39
21102;BME280;10709;49.006;12.100;2024-03-08T10:58:49;48691.19;;;-146.00;69.77
21102;BME280;10709;49.006;12.100;2024-03-08T11:01:16;48720.56;;;-146.00;70.04
21102;BME280;10709;49.006;12.100;2024-03-08T11:09:27;48712.72;;;-146.00;69.46
21102;BME280;10709;49.006;12.100;2024-03-08T11:12:27;48699.03;;;-146.00;69.35
21102;BME280;10709;49.006;12.100;2024-03-08T11:15:00;48677.47;;;-146.00;69.93
21102;BME280;10709;49.006;12.100;2024-03-08T11:22:48;48718.59;;;-146.00;68.11
21102;BME280;10709;49.006;12.100;2024-03-08T11:25:36;48706.84;;;-146.00;67.67
21102;BME280;10709;49.006;12.100;2024-03-08T11:28:20;48699.03;;;-146.00;67.61
21102;BME280;10709;49.006;12.100;2024-03-08T11:33:30;48708.81;;;-146.00;68.30
21102;BME280;10709;49.006;12.100;2024-03-08T11:38:41;48702.94;;;-146.00;67.02
21102;BME280;10709;49.006;12.100;2024-03-08T11:41:08;48699.03;;;-146.00;66.38
21102;BME280;10709;49.006;12.100;2024-03-08T11:43:35;48691.19;;;-146.00;65.81
21102;BME280;10709;49.006;12.100;2024-03-08T11:46:08;48695.09;;;-146.00;65.48
21102;BME280;10709;49.006;12.100;2024-03-08T11:48:36;48710.78;;;-146.00;66.81
21102;BME280;10709;49.006;12.100;2024-03-08T11:51:04;48693.16;;;-146.00;65.50
21102;BME280;10709;49.006;12.100;2024-03-08T11:53:31;48726.44;;;-146.00;65.93
21102;BME280;10709;49.006;12.100;2024-03-08T11:56:11;48710.78;;;-146.00;65.56
21102;BME280;10709;49.006;12.100;2024-03-08T11:58:41;48714.69;;;-146.00;64.84
21102;BME280;10709;49.006;12.100;2024-03-08T12:01:10;48706.84;;;-146.00;64.22
21102;BME280;10709;49.006;12.100;2024-03-08T12:03:43;48699.03;;;-146.00;63.64
21102;BME280;10709;49.006;12.100;2024-03-08T12:06:10;48718.59;;;-146.00;64.31
21102;BME280;10709;49.006;12.100;2024-03-08T12:08:37;48695.09;;;-146.00;64.57
21102;BME280;10709;49.006;12.100;2024-03-08T12:11:04;48710.78;;;-146.00;63.69
21102;BME280;10709;49.006;12.100;2024-03-08T12:13:32;48702.94;;;-146.00;64.42
21102;BME280;10709;49.006;12.100;2024-03-08T12:16:03;48708.81;;;-146.00;63.85
21102;BME280;10709;49.006;12.100;2024-03-08T12:18:36;48714.69;;;-146.00;64.22
21102;BME280;10709;49.006;12.100;2024-03-08T12:21:10;48687.28;;;-146.00;63.80
21102;BME280;10709;49.006;12.100;2024-03-08T12:23:38;48708.81;;;-146.00;64.49
21102;BME280;10709;49.006;12.100;2024-03-08T12:26:15;48718.59;;;-146.00;63.21
21102;BME280;10709;49.006;12.100;2024-03-08T12:28:44;48712.72;;;-146.00;62.05
21102;BME280;10709;49.006;12.100;2024-03-08T12:31:18;48722.53;;;-146.00;62.66
21102;BME280;10709;49.006;12.100;2024-03-08T12:33:54;48702.94;;;-146.00;61.01
21102;BME280;10709;49.006;12.100;2024-03-08T12:36:23;48710.78;;;-146.00;60.21
21102;BME280;10709;49.006;12.100;2024-03-08T12:38:50;48718.59;;;-146.00;60.36
21102;BME280;10709;49.006;12.100;2024-03-08T12:41:20;48714.69;;;-146.00;59.97
21102;BME280;10709;49.006;12.100;2024-03-08T12:43:48;48714.69;;;-146.00;59.78
21102;BME280;10709;49.006;12.100;2024-03-08T12:46:15;48702.94;;;-146.00;60.86
21102;BME280;10709;49.006;12.100;2024-03-08T12:48:44;48695.09;;;-146.00;59.50
21102;BME280;10709;49.006;12.100;2024-03-08T12:51:14;48702.94;;;-146.00;59.33
21102;BME280;10709;49.006;12.100;2024-03-08T12:53:42;48714.69;;;-146.00;58.36
21102;BME280;10709;49.006;12.100;2024-03-08T12:56:38;48714.69;;;-146.00;58.17